createdAt,value
2023-02-21T00:01:37.638Z,6.01
2023-02-21T00:04:22.995Z,5.89
2023-02-21T00:07:07.755Z,5.76
2023-02-21T00:09:52.577Z,5.77
2023-02-21T00:12:37.446Z,5.72
2023-02-21T00:15:22.838Z,5.70
2023-02-21T00:18:07.552Z,5.71
2023-02-21T00:20:52.347Z,5.70
2023-02-21T00:23:37.042Z,5.72
2023-02-21T00:26:21.868Z,5.76
2023-02-21T00:29:06.643Z,5.75
2023-02-21T00:31:51.344Z,5.74
2023-02-21T00:34:36.186Z,5.72
2023-02-21T00:37:20.824Z,5.69
2023-02-21T00:40:05.694Z,5.70
2023-02-21T00:42:50.299Z,5.64
2023-02-21T00:45:35.166Z,5.74
2023-02-21T00:48:19.958Z,5.79
2023-02-21T00:51:05.177Z,5.76
2023-02-21T00:53:49.912Z,5.73
2023-02-21T00:56:34.629Z,5.73
2023-02-21T00:59:19.431Z,5.57
2023-02-21T01:02:04.087Z,5.51
2023-02-21T01:04:48.921Z,5.49
2023-02-21T01:07:33.769Z,5.45
2023-02-21T01:10:18.897Z,5.30
2023-02-21T01:13:03.634Z,5.17
2023-02-21T01:15:48.488Z,5.17
2023-02-21T01:18:33.433Z,5.08
2023-02-21T01:21:18.188Z,4.96
2023-02-21T01:24:03.095Z,4.94
2023-02-21T01:26:47.882Z,4.89
2023-02-21T01:29:32.603Z,4.84
2023-02-21T01:32:17.480Z,4.76
2023-02-21T01:35:02.311Z,4.70
2023-02-21T01:37:47.034Z,4.64
2023-02-21T01:40:34.855Z,4.58
2023-02-21T01:43:19.774Z,4.50
2023-02-21T01:46:09.572Z,4.53
2023-02-21T01:48:55.375Z,4.67
2023-02-21T01:51:46.732Z,4.49
2023-02-21T01:54:32.114Z,4.39
2023-02-21T01:57:19.326Z,4.42
2023-02-21T02:00:04.142Z,4.36
2023-02-21T02:03:09.499Z,4.21
2023-02-21T02:05:57.899Z,4.11
2023-02-21T02:08:47.730Z,4.12
2023-02-21T02:12:17.118Z,3.94
2023-02-21T02:15:05.390Z,3.85
2023-02-21T02:17:37.644Z,3.83
2023-02-21T02:20:15.816Z,3.88
2023-02-21T02:23:06.150Z,3.90
2023-02-21T02:25:40.911Z,3.91
2023-02-21T02:28:21.260Z,3.87
2023-02-21T02:31:17.065Z,3.83
2023-02-21T02:34:05.424Z,3.89
2023-02-21T02:36:42.034Z,4.04
2023-02-21T02:39:32.171Z,4.10
2023-02-21T02:42:17.216Z,4.06
2023-02-21T02:44:56.759Z,4.07
2023-02-21T02:47:28.671Z,4.04
2023-02-21T02:49:55.761Z,4.02
2023-02-21T02:52:22.190Z,3.91
2023-02-21T02:55:05.645Z,3.74
2023-02-21T02:57:40.708Z,3.75
2023-02-21T03:00:10.775Z,3.77
2023-02-21T03:02:42.021Z,3.88
2023-02-21T03:05:21.330Z,3.97
2023-02-21T03:08:13.053Z,3.82
2023-02-21T03:10:53.296Z,3.78
2023-02-21T03:13:43.016Z,3.89
2023-02-21T03:16:30.784Z,3.88
2023-02-21T03:19:00.206Z,3.87
2023-02-21T03:21:34.849Z,3.91
2023-02-21T03:24:04.462Z,3.90
2023-02-21T03:26:35.588Z,3.74
2023-02-21T03:29:04.480Z,3.76
2023-02-21T03:31:37.685Z,3.78
2023-02-21T03:34:04.197Z,3.82
2023-02-21T03:36:31.876Z,3.81
2023-02-21T03:38:58.323Z,3.75
2023-02-21T03:41:24.859Z,3.47
2023-02-21T03:43:51.283Z,3.35
2023-02-21T03:46:17.729Z,3.34
2023-02-21T03:48:44.663Z,3.46
2023-02-21T03:51:11.118Z,3.56
2023-02-21T03:53:37.640Z,3.49
2023-02-21T03:56:04.437Z,3.65
2023-02-21T03:58:30.834Z,3.65
2023-02-21T04:00:57.719Z,3.51
2023-02-21T04:03:24.182Z,3.28
2023-02-21T04:05:50.818Z,3.31
2023-02-21T04:08:17.600Z,3.37
2023-02-21T04:10:52.175Z,3.32
2023-02-21T04:13:19.979Z,3.33
2023-02-21T04:15:46.456Z,3.42
2023-02-21T04:18:12.901Z,3.49
2023-02-21T04:20:39.408Z,3.33
2023-02-21T04:23:05.855Z,3.32
2023-02-21T04:25:32.275Z,3.27
2023-02-21T04:27:58.715Z,3.25
2023-02-21T04:30:25.163Z,3.30
2023-02-21T04:32:51.583Z,3.36
2023-02-21T04:35:18.140Z,3.42
2023-02-21T04:37:47.340Z,3.39
2023-02-21T04:40:14.248Z,3.34
2023-02-21T04:42:40.874Z,3.38
2023-02-21T04:45:07.732Z,3.37
2023-02-21T04:47:34.119Z,3.34
2023-02-21T04:50:00.720Z,3.34
2023-02-21T04:52:27.153Z,3.36
2023-02-21T04:54:53.599Z,3.32
2023-02-21T04:57:20.016Z,3.33
2023-02-21T04:59:46.475Z,3.32
2023-02-21T05:02:13.382Z,3.35
2023-02-21T05:04:39.968Z,3.38
2023-02-21T05:07:06.777Z,3.31
2023-02-21T05:09:33.209Z,3.30
2023-02-21T05:11:59.907Z,3.22
2023-02-21T05:14:26.390Z,3.30
2023-02-21T05:16:53.223Z,3.34
2023-02-21T05:19:27.575Z,3.33
2023-02-21T05:21:56.364Z,3.35
2023-02-21T05:24:23.571Z,3.41
2023-02-21T05:26:50.258Z,3.36
2023-02-21T05:29:16.822Z,3.32
2023-02-21T05:31:43.205Z,3.32
2023-02-21T05:34:09.743Z,3.34
2023-02-21T05:36:36.206Z,3.44
2023-02-21T05:39:03.673Z,3.48
2023-02-21T05:41:30.272Z,3.58
2023-02-21T05:43:57.026Z,3.58
2023-02-21T05:46:33.058Z,3.49
2023-02-21T05:49:00.987Z,3.56
2023-02-21T05:51:28.516Z,3.60
2023-02-21T05:53:54.990Z,3.60
2023-02-21T05:56:21.964Z,3.59
2023-02-21T05:58:49.108Z,3.53
2023-02-21T06:01:15.829Z,3.58
2023-02-21T06:03:43.141Z,3.59
2023-02-21T06:06:09.886Z,3.49
2023-02-21T06:08:46.550Z,3.52
2023-02-21T06:11:14.149Z,3.40
2023-02-21T06:13:42.486Z,3.36
2023-02-21T06:16:08.996Z,3.45
2023-02-21T06:18:35.506Z,3.41
2023-02-21T06:21:01.994Z,3.46
2023-02-21T06:23:28.416Z,3.42
2023-02-21T06:25:54.822Z,3.36
2023-02-21T06:28:21.248Z,3.32
2023-02-21T06:30:52.953Z,3.39
2023-02-21T06:33:19.488Z,3.29
2023-02-21T06:35:45.954Z,3.25
2023-02-21T06:38:12.393Z,3.25
2023-02-21T06:40:38.798Z,3.23
2023-02-21T06:43:05.232Z,3.23
2023-02-21T06:45:31.639Z,3.18
2023-02-21T06:47:58.154Z,3.19
2023-02-21T06:50:24.639Z,3.08
2023-02-21T06:52:51.632Z,3.05
2023-02-21T06:55:25.680Z,3.03
2023-02-21T06:57:52.551Z,3.15
2023-02-21T07:00:19.153Z,3.10
2023-02-21T07:02:45.543Z,3.19
2023-02-21T07:05:12.047Z,3.34
2023-02-21T07:07:38.455Z,3.45
2023-02-21T07:10:05.439Z,3.46
2023-02-21T07:12:31.977Z,3.48
2023-02-21T07:14:58.403Z,3.42
2023-02-21T07:17:24.814Z,3.49
2023-02-21T07:19:51.239Z,3.53
2023-02-21T07:22:19.035Z,3.58
2023-02-21T07:24:45.480Z,3.53
2023-02-21T07:27:11.866Z,3.63
2023-02-21T07:29:38.266Z,3.72
2023-02-21T07:32:04.907Z,3.72
2023-02-21T07:34:31.365Z,3.69
2023-02-21T07:36:58.072Z,3.72
2023-02-21T07:39:24.492Z,3.84
2023-02-21T07:41:50.920Z,3.92
2023-02-21T07:44:17.759Z,4.04
2023-02-21T07:46:46.446Z,4.08
2023-02-21T07:49:13.092Z,3.95
2023-02-21T07:51:39.783Z,4.09
2023-02-21T07:54:06.353Z,4.22
2023-02-21T07:56:32.816Z,4.16
2023-02-21T07:58:59.250Z,4.21
2023-02-21T08:01:26.898Z,4.33
2023-02-21T08:03:53.628Z,4.36
2023-02-21T08:06:20.978Z,4.36
2023-02-21T08:08:47.457Z,4.34
2023-02-21T08:11:14.359Z,4.47
2023-02-21T08:13:40.988Z,4.43
2023-02-21T08:16:07.565Z,4.46
2023-02-21T08:18:33.991Z,4.57
2023-02-21T08:21:00.447Z,4.73
2023-02-21T08:23:26.973Z,4.82
2023-02-21T08:25:53.410Z,4.79
2023-02-21T08:28:19.877Z,4.85
2023-02-21T08:30:46.332Z,5.01
2023-02-21T08:33:12.934Z,5.14
2023-02-21T08:35:39.403Z,5.24
2023-02-21T08:38:06.023Z,5.26
2023-02-21T08:40:32.524Z,5.29
2023-02-21T08:43:00.854Z,5.30
2023-02-21T08:45:28.974Z,5.34
2023-02-21T08:47:56.605Z,5.43
2023-02-21T08:50:25.413Z,5.52
2023-02-21T08:52:52.856Z,5.59
2023-02-21T08:55:20.951Z,5.56
2023-02-21T08:57:52.625Z,5.63
2023-02-21T09:00:23.269Z,5.68
2023-02-21T09:02:51.330Z,5.71
2023-02-21T09:05:26.781Z,5.77
2023-02-21T09:07:58.666Z,5.78
2023-02-21T09:10:27.228Z,5.75
2023-02-21T09:12:53.707Z,5.78
2023-02-21T09:15:20.189Z,5.91
2023-02-21T09:17:46.930Z,5.95
2023-02-21T09:20:18.271Z,5.98
2023-02-21T09:22:45.464Z,6.06
2023-02-21T09:25:13.855Z,6.18
2023-02-21T09:27:40.813Z,6.20
2023-02-21T09:30:21.660Z,6.23
2023-02-21T09:32:48.976Z,6.30
2023-02-21T09:35:15.806Z,6.34
2023-02-21T09:37:43.603Z,6.33
2023-02-21T09:40:21.757Z,6.39
2023-02-21T09:42:58.340Z,6.48
2023-02-21T09:45:29.054Z,6.53
2023-02-21T09:47:58.978Z,6.41
2023-02-21T09:50:31.573Z,6.58
2023-02-21T09:53:05.912Z,6.81
2023-02-21T09:55:43.157Z,6.91
2023-02-21T09:58:18.782Z,6.90
2023-02-21T10:00:47.273Z,6.95
2023-02-21T10:03:59.326Z,7.10
2023-02-21T10:06:40.761Z,7.17
2023-02-21T10:09:21.063Z,7.27
2023-02-21T10:11:47.410Z,7.38
2023-02-21T10:14:32.473Z,7.54
2023-02-21T10:17:01.834Z,7.59
2023-02-21T10:19:36.475Z,7.63
2023-02-21T10:22:14.561Z,7.54
2023-02-21T10:24:41.948Z,7.63
2023-02-21T10:27:16.992Z,7.74
2023-02-21T10:29:55.391Z,7.98
2023-02-21T10:32:24.667Z,8.17
2023-02-21T10:34:52.197Z,8.22
2023-02-21T10:37:24.729Z,8.23
2023-02-21T10:39:58.859Z,8.27
2023-02-21T10:42:31.943Z,8.26
2023-02-21T10:44:58.936Z,8.27
2023-02-21T10:47:46.256Z,8.36
2023-02-21T10:50:12.895Z,8.47
2023-02-21T10:52:50.106Z,8.58
2023-02-21T10:55:32.238Z,8.58
2023-02-21T10:58:07.677Z,8.73
2023-02-21T11:00:48.573Z,8.86
2023-02-21T11:03:27.346Z,9.02
2023-02-21T11:05:59.708Z,9.19
2023-02-21T11:08:39.891Z,9.12
2023-02-21T11:11:06.784Z,9.24
2023-02-21T11:13:39.044Z,9.32
2023-02-21T11:16:16.698Z,9.41
2023-02-21T11:18:43.569Z,9.46
2023-02-21T11:21:22.735Z,9.57
2023-02-21T11:24:04.871Z,9.77
2023-02-21T11:26:37.620Z,9.94
2023-02-21T11:29:25.856Z,9.98
2023-02-21T11:31:54.188Z,10.03
2023-02-21T11:34:20.984Z,10.22
2023-02-21T11:36:49.540Z,10.33
2023-02-21T11:39:50.223Z,10.52
2023-02-21T11:42:28.844Z,10.70
2023-02-21T11:45:21.970Z,10.74
2023-02-21T11:48:02.335Z,10.79
2023-02-21T11:50:39.533Z,10.94
2023-02-21T11:53:22.526Z,11.17
2023-02-21T11:56:06.023Z,11.21
2023-02-21T11:58:53.605Z,11.29
2023-02-21T12:01:28.803Z,11.39
2023-02-21T12:04:45.123Z,11.49
2023-02-21T12:07:23.518Z,11.70
2023-02-21T12:10:05.897Z,11.77
2023-02-21T12:12:57.741Z,11.81
2023-02-21T12:15:34.776Z,11.91
2023-02-21T12:18:17.874Z,11.98
2023-02-21T12:20:57.731Z,12.06
2023-02-21T12:23:59.630Z,12.00
2023-02-21T12:26:49.221Z,12.10
2023-02-21T12:29:40.264Z,12.24
2023-02-21T12:32:09.630Z,12.43
2023-02-21T12:34:38.753Z,12.35
2023-02-21T12:37:14.170Z,12.47
2023-02-21T12:40:07.473Z,12.61
2023-02-21T12:42:36.915Z,12.71
2023-02-21T12:45:30.866Z,12.75
2023-02-21T12:48:16.299Z,12.79
2023-02-21T12:50:49.584Z,13.03
2023-02-21T12:53:39.105Z,12.80
2023-02-21T12:56:31.084Z,12.74
2023-02-21T12:59:19.158Z,12.92
2023-02-21T13:02:35.001Z,13.08
2023-02-21T13:05:11.806Z,13.28
2023-02-21T13:08:07.748Z,13.33
2023-02-21T13:11:13.106Z,13.36
2023-02-21T13:13:40.246Z,13.30
2023-02-21T13:16:13.160Z,13.17
2023-02-21T13:18:49.652Z,13.25
2023-02-21T13:21:39.699Z,13.17
2023-02-21T13:24:45.777Z,13.15
2023-02-21T13:27:28.133Z,13.15
2023-02-21T13:30:12.370Z,13.20
2023-02-21T13:32:40.518Z,13.16
2023-02-21T13:35:10.154Z,13.15
2023-02-21T13:37:46.532Z,13.35
2023-02-21T13:40:34.854Z,13.48
2023-02-21T13:43:06.684Z,13.31
2023-02-21T13:45:33.392Z,13.18
2023-02-21T13:48:00.065Z,13.23
2023-02-21T13:50:39.009Z,13.25
2023-02-21T13:53:08.677Z,13.15
2023-02-21T13:55:36.512Z,13.27
2023-02-21T13:58:04.861Z,13.40
2023-02-21T14:00:31.247Z,13.43
2023-02-21T14:02:57.602Z,13.36
2023-02-21T14:05:25.039Z,13.37
2023-02-21T14:08:02.723Z,13.44
2023-02-21T14:10:34.123Z,13.36
2023-02-21T14:13:04.542Z,13.36
2023-02-21T14:15:43.729Z,13.54
2023-02-21T14:18:27.650Z,13.63
2023-02-21T14:20:56.695Z,13.57
2023-02-21T14:23:40.875Z,13.51
2023-02-21T14:26:07.402Z,13.31
2023-02-21T14:28:58.654Z,13.23
2023-02-21T14:31:50.821Z,13.36
2023-02-21T14:34:25.236Z,13.36
2023-02-21T14:36:52.994Z,13.36
2023-02-21T14:39:19.650Z,13.29
2023-02-21T14:42:01.060Z,13.30
2023-02-21T14:44:36.957Z,13.27
2023-02-21T14:47:27.003Z,13.25
2023-02-21T14:50:09.750Z,13.26
2023-02-21T14:53:12.098Z,13.25
2023-02-21T14:56:02.130Z,13.18
2023-02-21T14:59:08.122Z,13.17
2023-02-21T15:01:58.643Z,13.13
2023-02-21T15:04:28.074Z,13.10
2023-02-21T15:07:10.490Z,13.17
2023-02-21T15:09:37.338Z,13.24
2023-02-21T15:12:13.474Z,13.30
2023-02-21T15:14:52.165Z,13.30
2023-02-21T15:17:22.325Z,13.28
2023-02-21T15:20:02.397Z,13.23
2023-02-21T15:22:28.933Z,13.17
2023-02-21T15:25:10.882Z,13.03
2023-02-21T15:27:52.537Z,12.96
2023-02-21T15:30:25.142Z,12.94
2023-02-21T15:33:20.071Z,12.91
2023-02-21T15:35:49.922Z,12.90
2023-02-21T15:38:26.272Z,12.83
2023-02-21T15:40:59.123Z,12.81
2023-02-21T15:43:36.912Z,12.86
2023-02-21T15:46:08.742Z,12.82
2023-02-21T15:48:36.005Z,12.82
2023-02-21T15:51:09.024Z,12.80
2023-02-21T15:53:35.737Z,12.74
2023-02-21T15:56:17.417Z,12.70
2023-02-21T15:59:25.435Z,12.64
2023-02-21T16:02:18.435Z,12.54
2023-02-21T16:04:47.349Z,12.48
2023-02-21T16:07:34.977Z,12.40
2023-02-21T16:10:06.149Z,12.34
2023-02-21T16:12:44.769Z,12.28
2023-02-21T16:15:25.534Z,12.20
2023-02-21T16:17:55.100Z,12.11
2023-02-21T16:20:37.011Z,12.02
2023-02-21T16:23:23.990Z,11.94
2023-02-21T16:25:56.361Z,11.86
2023-02-21T16:28:23.160Z,11.78
2023-02-21T16:30:49.870Z,11.70
2023-02-21T16:33:16.488Z,11.64
2023-02-21T16:35:43.298Z,11.57
2023-02-21T16:38:14.710Z,11.51
2023-02-21T16:40:41.757Z,11.41
2023-02-21T16:43:15.274Z,11.36
2023-02-21T16:45:45.437Z,11.32
2023-02-21T16:48:17.812Z,11.28
2023-02-21T16:50:46.340Z,11.25
2023-02-21T16:53:13.053Z,11.21
2023-02-21T16:55:40.354Z,11.16
2023-02-21T16:58:16.100Z,11.12
2023-02-21T17:00:42.655Z,11.05
2023-02-21T17:03:09.090Z,11.01
2023-02-21T17:05:36.101Z,10.98
2023-02-21T17:08:03.079Z,10.92
2023-02-21T17:10:29.574Z,10.87
2023-02-21T17:12:56.242Z,10.81
2023-02-21T17:15:23.731Z,10.76
2023-02-21T17:17:53.369Z,10.71
2023-02-21T17:20:21.891Z,10.70
2023-02-21T17:22:48.745Z,10.69
2023-02-21T17:25:16.260Z,10.66
2023-02-21T17:27:42.982Z,10.63
2023-02-21T17:30:10.507Z,10.59
2023-02-21T17:32:37.169Z,10.58
2023-02-21T17:35:04.226Z,10.58
2023-02-21T17:37:30.679Z,10.58
2023-02-21T17:39:57.670Z,10.56
2023-02-21T17:42:25.616Z,10.59
2023-02-21T17:44:53.213Z,10.67
2023-02-21T17:47:21.460Z,10.62
2023-02-21T17:49:49.543Z,10.63
2023-02-21T17:52:17.108Z,10.64
2023-02-21T17:54:44.052Z,10.61
2023-02-21T17:57:11.033Z,10.60
2023-02-21T17:59:37.970Z,10.60
2023-02-21T18:02:05.791Z,10.60
2023-02-21T18:04:32.300Z,10.60
2023-02-21T18:06:58.785Z,10.62
2023-02-21T18:09:25.695Z,10.67
2023-02-21T18:11:54.146Z,10.71
2023-02-21T18:14:22.291Z,10.73
2023-02-21T18:16:49.169Z,10.75
2023-02-21T18:19:15.983Z,10.74
2023-02-21T18:21:45.530Z,10.76
2023-02-21T18:24:12.987Z,10.75
2023-02-21T18:26:40.306Z,10.73
2023-02-21T18:29:08.069Z,10.68
2023-02-21T18:31:35.783Z,10.67
2023-02-21T18:34:03.121Z,10.68
2023-02-21T18:36:29.728Z,10.70
2023-02-21T18:38:56.190Z,10.74
2023-02-21T18:41:23.084Z,10.73
2023-02-21T18:43:50.732Z,10.73
2023-02-21T18:46:20.168Z,10.75
2023-02-21T18:48:49.003Z,10.76
2023-02-21T18:51:19.460Z,10.81
2023-02-21T18:53:48.151Z,10.83
2023-02-21T18:56:18.833Z,10.82
2023-02-21T18:58:46.660Z,10.80
2023-02-21T19:01:15.643Z,10.80
2023-02-21T19:03:42.349Z,10.82
2023-02-21T19:06:12.611Z,10.83
2023-02-21T19:08:39.237Z,10.79
2023-02-21T19:11:05.703Z,10.76
2023-02-21T19:13:32.195Z,10.73
2023-02-21T19:15:59.940Z,10.70
2023-02-21T19:18:28.173Z,10.71
2023-02-21T19:20:54.837Z,10.71
2023-02-21T19:23:21.316Z,10.72
2023-02-21T19:25:47.794Z,10.72
2023-02-21T19:28:14.295Z,10.74
2023-02-21T19:30:40.819Z,10.75
2023-02-21T19:33:08.288Z,10.76
2023-02-21T19:35:35.328Z,10.75
2023-02-21T19:38:05.246Z,10.75
2023-02-21T19:40:32.691Z,10.75
2023-02-21T19:42:59.288Z,10.74
2023-02-21T19:45:25.917Z,10.70
2023-02-21T19:47:52.438Z,10.66
2023-02-21T19:50:19.137Z,10.68
2023-02-21T19:52:51.824Z,10.67
2023-02-21T19:55:18.438Z,10.61
2023-02-21T19:57:44.863Z,10.55
2023-02-21T20:00:11.995Z,10.51
2023-02-21T20:02:38.653Z,10.44
2023-02-21T20:05:05.758Z,10.39
2023-02-21T20:07:32.193Z,10.37
2023-02-21T20:09:58.666Z,10.37
2023-02-21T20:12:25.139Z,10.36
2023-02-21T20:14:53.672Z,10.32
2023-02-21T20:17:20.126Z,10.35
2023-02-21T20:19:46.599Z,10.40
2023-02-21T20:22:13.092Z,10.43
2023-02-21T20:24:39.507Z,10.45
2023-02-21T20:27:05.893Z,10.44
2023-02-21T20:29:32.291Z,10.46
2023-02-21T20:32:00.077Z,10.45
2023-02-21T20:34:27.565Z,10.40
2023-02-21T20:36:53.988Z,10.39
2023-02-21T20:39:28.910Z,10.33
2023-02-21T20:41:56.243Z,10.32
2023-02-21T20:44:22.885Z,10.31
2023-02-21T20:46:49.410Z,10.29
2023-02-21T20:49:15.934Z,10.29
2023-02-21T20:51:43.503Z,10.26
2023-02-21T20:54:19.612Z,10.30
2023-02-21T20:56:48.600Z,10.33
2023-02-21T20:59:24.874Z,10.34
2023-02-21T21:01:51.424Z,10.34
2023-02-21T21:04:23.079Z,10.34
2023-02-21T21:06:49.592Z,10.33
2023-02-21T21:09:17.845Z,10.25
2023-02-21T21:11:45.154Z,10.20
2023-02-21T21:14:13.907Z,10.23
2023-02-21T21:16:42.708Z,10.25
2023-02-21T21:19:09.168Z,10.20
2023-02-21T21:21:37.867Z,10.18
2023-02-21T21:24:07.055Z,10.00
2023-02-21T21:26:33.853Z,9.91
2023-02-21T21:29:01.331Z,9.93
2023-02-21T21:31:27.882Z,9.97
2023-02-21T21:33:56.277Z,10.02
2023-02-21T21:36:23.133Z,10.00
2023-02-21T21:38:49.553Z,9.99
2023-02-21T21:41:16.345Z,9.96
2023-02-21T21:43:45.213Z,9.96
2023-02-21T21:46:13.547Z,9.94
2023-02-21T21:48:44.346Z,9.98
2023-02-21T21:51:11.613Z,9.95
2023-02-21T21:53:41.506Z,9.94
2023-02-21T21:56:08.480Z,9.94
2023-02-21T21:58:35.029Z,9.87
2023-02-21T22:01:02.248Z,9.84
2023-02-21T22:03:29.084Z,9.80
2023-02-21T22:06:00.462Z,9.80
2023-02-21T22:08:27.833Z,9.80
2023-02-21T22:10:54.885Z,9.78
2023-02-21T22:13:21.793Z,9.76
2023-02-21T22:15:48.449Z,9.78
2023-02-21T22:18:19.535Z,9.73
2023-02-21T22:20:49.599Z,9.68
2023-02-21T22:23:21.019Z,9.64
2023-02-21T22:25:47.361Z,9.63
2023-02-21T22:28:13.814Z,9.61
2023-02-21T22:30:40.692Z,9.63
2023-02-21T22:33:13.334Z,9.65
2023-02-21T22:35:40.937Z,9.63
2023-02-21T22:38:07.750Z,9.63
2023-02-21T22:40:35.678Z,9.64
2023-02-21T22:43:10.938Z,9.65
2023-02-21T22:45:38.061Z,9.65
2023-02-21T22:48:07.372Z,9.61
2023-02-21T22:50:36.900Z,9.56
2023-02-21T22:53:08.163Z,9.57
2023-02-21T22:55:39.849Z,9.59
2023-02-21T22:58:09.187Z,9.57
2023-02-21T23:00:36.824Z,9.52
2023-02-21T23:03:15.912Z,9.47
2023-02-21T23:05:44.743Z,9.48
2023-02-21T23:08:12.905Z,9.52
2023-02-21T23:10:40.328Z,9.52
2023-02-21T23:13:14.173Z,9.52
2023-02-21T23:15:42.272Z,9.46
2023-02-21T23:18:10.058Z,9.46
2023-02-21T23:20:37.180Z,9.49
2023-02-21T23:23:04.310Z,9.55
2023-02-21T23:25:37.030Z,9.58
2023-02-21T23:28:12.056Z,9.64
2023-02-21T23:30:42.285Z,9.63
2023-02-21T23:33:14.388Z,9.53
2023-02-21T23:35:42.617Z,9.49
2023-02-21T23:38:15.407Z,9.57
2023-02-21T23:40:43.966Z,9.48
2023-02-21T23:43:11.019Z,9.44
2023-02-21T23:45:41.376Z,9.47
2023-02-21T23:48:15.555Z,9.54
2023-02-21T23:50:46.882Z,9.46
2023-02-21T23:53:19.953Z,9.39
2023-02-21T23:55:47.684Z,9.34
2023-02-21T23:58:16.924Z,9.34
